sensor_id;sensor_type;location;lat;lon;timestamp;temperature;humidity
3172;DHT22;1597;51.572;6.992;2023-08-31T00:00:45;14.00;99.90
3172;DHT22;1597;51.572;6.992;2023-08-31T00:03:12;14.00;99.90
3172;DHT22;1597;51.572;6.992;2023-08-31T00:05:41;14.10;99.90
3172;DHT22;1597;51.572;6.992;2023-08-31T00:08:07;14.10;99.90
3172;DHT22;1597;51.572;6.992;2023-08-31T00:10:34;14.00;99.90
3172;DHT22;1597;51.572;6.992;2023-08-31T00:13:03;14.00;99.90
3172;DHT22;1597;51.572;6.992;2023-08-31T00:15:30;14.00;99.90
3172;DHT22;1597;51.572;6.992;2023-08-31T00:17:58;14.00;99.90
3172;DHT22;1597;51.572;6.992;2023-08-31T00:20:25;14.00;99.90
3172;DHT22;1597;51.572;6.992;2023-08-31T00:22:52;14.00;99.90
3172;DHT22;1597;51.572;6.992;2023-08-31T00:25:18;14.00;99.90
3172;DHT22;1597;51.572;6.992;2023-08-31T00:27:44;14.00;99.90
3172;DHT22;1597;51.572;6.992;2023-08-31T00:30:14;14.00;99.90
3172;DHT22;1597;51.572;6.992;2023-08-31T00:32:41;13.90;99.90
3172;DHT22;1597;51.572;6.992;2023-08-31T00:35:08;13.90;99.90
3172;DHT22;1597;51.572;6.992;2023-08-31T00:37:34;13.80;99.90
3172;DHT22;1597;51.572;6.992;2023-08-31T00:40:01;13.80;99.90
3172;DHT22;1597;51.572;6.992;2023-08-31T00:42:27;13.80;99.90
3172;DHT22;1597;51.572;6.992;2023-08-31T00:44:55;13.80;99.90
3172;DHT22;1597;51.572;6.992;2023-08-31T00:47:21;13.80;99.90
3172;DHT22;1597;51.572;6.992;2023-08-31T00:49:47;13.80;99.90
3172;DHT22;1597;51.572;6.992;2023-08-31T00:52:15;13.80;99.90
3172;DHT22;1597;51.572;6.992;2023-08-31T00:54:41;13.80;99.90
3172;DHT22;1597;51.572;6.992;2023-08-31T00:57:08;13.70;99.90
3172;DHT22;1597;51.572;6.992;2023-08-31T00:59:34;13.80;99.90
3172;DHT22;1597;51.572;6.992;2023-08-31T01:02:11;13.80;99.90
3172;DHT22;1597;51.572;6.992;2023-08-31T01:05:31;13.80;99.90
3172;DHT22;1597;51.572;6.992;2023-08-31T01:08:13;13.70;99.90
3172;DHT22;1597;51.572;6.992;2023-08-31T01:10:46;13.70;99.90
3172;DHT22;1597;51.572;6.992;2023-08-31T01:13:21;13.80;99.90
3172;DHT22;1597;51.572;6.992;2023-08-31T01:15:53;13.80;99.90
3172;DHT22;1597;51.572;6.992;2023-08-31T01:18:22;13.70;99.90
3172;DHT22;1597;51.572;6.992;2023-08-31T01:23:53;13.60;99.90
3172;DHT22;1597;51.572;6.992;2023-08-31T01:26:24;13.60;99.90
3172;DHT22;1597;51.572;6.992;2023-08-31T01:28:51;13.60;99.90
3172;DHT22;1597;51.572;6.992;2023-08-31T01:31:17;13.50;99.90
3172;DHT22;1597;51.572;6.992;2023-08-31T01:33:44;13.50;99.90
3172;DHT22;1597;51.572;6.992;2023-08-31T01:36:29;13.50;99.90
3172;DHT22;1597;51.572;6.992;2023-08-31T01:39:06;13.50;99.90
3172;DHT22;1597;51.572;6.992;2023-08-31T01:41:34;13.50;99.90
3172;DHT22;1597;51.572;6.992;2023-08-31T01:44:01;13.40;99.90
3172;DHT22;1597;51.572;6.992;2023-08-31T01:46:28;13.40;99.90
3172;DHT22;1597;51.572;6.992;2023-08-31T01:48:54;13.40;99.90
3172;DHT22;1597;51.572;6.992;2023-08-31T01:51:20;13.40;99.90
3172;DHT22;1597;51.572;6.992;2023-08-31T01:53:46;13.40;99.90
3172;DHT22;1597;51.572;6.992;2023-08-31T01:56:12;13.40;99.90
3172;DHT22;1597;51.572;6.992;2023-08-31T01:58:39;13.30;99.90
3172;DHT22;1597;51.572;6.992;2023-08-31T02:01:05;13.30;99.90
3172;DHT22;1597;51.572;6.992;2023-08-31T02:03:30;13.30;99.90
3172;DHT22;1597;51.572;6.992;2023-08-31T02:05:56;13.30;99.90
3172;DHT22;1597;51.572;6.992;2023-08-31T02:08:22;13.20;99.90
3172;DHT22;1597;51.572;6.992;2023-08-31T02:10:48;13.20;99.90
3172;DHT22;1597;51.572;6.992;2023-08-31T02:13:14;13.20;99.90
3172;DHT22;1597;51.572;6.992;2023-08-31T02:15:41;13.10;99.90
3172;DHT22;1597;51.572;6.992;2023-08-31T02:18:08;13.20;99.90
3172;DHT22;1597;51.572;6.992;2023-08-31T02:20:34;13.10;99.90
3172;DHT22;1597;51.572;6.992;2023-08-31T02:23:00;13.10;99.90
3172;DHT22;1597;51.572;6.992;2023-08-31T02:25:26;13.10;99.90
3172;DHT22;1597;51.572;6.992;2023-08-31T02:27:54;13.10;99.90
3172;DHT22;1597;51.572;6.992;2023-08-31T02:30:21;13.00;99.90
3172;DHT22;1597;51.572;6.992;2023-08-31T02:32:47;13.00;99.90
3172;DHT22;1597;51.572;6.992;2023-08-31T02:35:13;13.00;99.90
3172;DHT22;1597;51.572;6.992;2023-08-31T02:37:39;12.90;99.90
3172;DHT22;1597;51.572;6.992;2023-08-31T02:40:05;12.90;99.90
3172;DHT22;1597;51.572;6.992;2023-08-31T02:42:32;12.90;99.90
3172;DHT22;1597;51.572;6.992;2023-08-31T02:44:57;12.90;99.90
3172;DHT22;1597;51.572;6.992;2023-08-31T02:47:23;12.90;99.90
3172;DHT22;1597;51.572;6.992;2023-08-31T02:49:49;12.80;99.90
3172;DHT22;1597;51.572;6.992;2023-08-31T02:52:15;12.80;99.90
3172;DHT22;1597;51.572;6.992;2023-08-31T02:54:40;12.70;99.90
3172;DHT22;1597;51.572;6.992;2023-08-31T02:57:06;12.70;99.90
3172;DHT22;1597;51.572;6.992;2023-08-31T02:59:33;12.70;99.90
3172;DHT22;1597;51.572;6.992;2023-08-31T03:02:02;12.70;99.90
3172;DHT22;1597;51.572;6.992;2023-08-31T03:04:29;12.70;99.90
3172;DHT22;1597;51.572;6.992;2023-08-31T03:06:55;12.70;99.90
3172;DHT22;1597;51.572;6.992;2023-08-31T03:09:21;12.70;99.90
3172;DHT22;1597;51.572;6.992;2023-08-31T03:11:46;12.70;99.90
3172;DHT22;1597;51.572;6.992;2023-08-31T03:14:12;12.70;99.90
3172;DHT22;1597;51.572;6.992;2023-08-31T03:16:38;12.70;99.90
3172;DHT22;1597;51.572;6.992;2023-08-31T03:19:05;12.70;99.90
3172;DHT22;1597;51.572;6.992;2023-08-31T03:21:31;12.70;99.90
3172;DHT22;1597;51.572;6.992;2023-08-31T03:23:56;12.70;99.90
3172;DHT22;1597;51.572;6.992;2023-08-31T03:26:22;12.70;99.90
3172;DHT22;1597;51.572;6.992;2023-08-31T03:28:48;12.70;99.90
3172;DHT22;1597;51.572;6.992;2023-08-31T03:31:14;12.70;99.90
3172;DHT22;1597;51.572;6.992;2023-08-31T03:33:39;12.70;99.90
3172;DHT22;1597;51.572;6.992;2023-08-31T03:36:05;12.60;99.90
3172;DHT22;1597;51.572;6.992;2023-08-31T03:38:32;12.60;99.90
3172;DHT22;1597;51.572;6.992;2023-08-31T03:40:58;12.60;99.90
3172;DHT22;1597;51.572;6.992;2023-08-31T03:43:23;12.60;99.90
3172;DHT22;1597;51.572;6.992;2023-08-31T03:45:53;12.60;99.90
3172;DHT22;1597;51.572;6.992;2023-08-31T03:48:23;12.60;99.90
3172;DHT22;1597;51.572;6.992;2023-08-31T03:50:55;12.50;99.90
3172;DHT22;1597;51.572;6.992;2023-08-31T03:53:21;12.50;99.90
3172;DHT22;1597;51.572;6.992;2023-08-31T03:55:47;12.50;99.90
3172;DHT22;1597;51.572;6.992;2023-08-31T03:58:13;12.50;99.90
3172;DHT22;1597;51.572;6.992;2023-08-31T04:00:39;12.50;99.90
3172;DHT22;1597;51.572;6.992;2023-08-31T04:03:05;12.50;99.90
3172;DHT22;1597;51.572;6.992;2023-08-31T04:05:34;12.50;99.90
3172;DHT22;1597;51.572;6.992;2023-08-31T04:08:01;12.50;99.90
3172;DHT22;1597;51.572;6.992;2023-08-31T04:10:30;12.50;99.90
3172;DHT22;1597;51.572;6.992;2023-08-31T04:12:57;12.50;99.90
3172;DHT22;1597;51.572;6.992;2023-08-31T04:15:23;12.50;99.90
3172;DHT22;1597;51.572;6.992;2023-08-31T04:17:49;12.60;99.90
3172;DHT22;1597;51.572;6.992;2023-08-31T04:20:17;12.60;99.90
3172;DHT22;1597;51.572;6.992;2023-08-31T04:22:43;12.60;99.90
3172;DHT22;1597;51.572;6.992;2023-08-31T04:25:09;12.50;99.90
3172;DHT22;1597;51.572;6.992;2023-08-31T04:27:34;12.50;99.90
3172;DHT22;1597;51.572;6.992;2023-08-31T04:30:02;12.50;99.90
3172;DHT22;1597;51.572;6.992;2023-08-31T04:32:28;12.50;99.90
3172;DHT22;1597;51.572;6.992;2023-08-31T04:34:53;12.50;99.90
3172;DHT22;1597;51.572;6.992;2023-08-31T04:37:21;12.50;99.90
3172;DHT22;1597;51.572;6.992;2023-08-31T04:39:47;12.50;99.90
3172;DHT22;1597;51.572;6.992;2023-08-31T04:42:13;12.50;99.90
3172;DHT22;1597;51.572;6.992;2023-08-31T04:44:39;12.50;99.90
3172;DHT22;1597;51.572;6.992;2023-08-31T04:47:05;12.50;99.90
3172;DHT22;1597;51.572;6.992;2023-08-31T04:49:30;12.50;99.90
3172;DHT22;1597;51.572;6.992;2023-08-31T04:51:56;12.50;99.90
3172;DHT22;1597;51.572;6.992;2023-08-31T04:54:22;12.50;99.90
3172;DHT22;1597;51.572;6.992;2023-08-31T04:56:48;12.50;99.90
3172;DHT22;1597;51.572;6.992;2023-08-31T04:59:14;12.50;99.90
3172;DHT22;1597;51.572;6.992;2023-08-31T05:01:40;12.50;99.90
3172;DHT22;1597;51.572;6.992;2023-08-31T05:04:06;12.50;99.90
3172;DHT22;1597;51.572;6.992;2023-08-31T05:06:31;12.50;99.90
3172;DHT22;1597;51.572;6.992;2023-08-31T05:08:57;12.50;99.90
3172;DHT22;1597;51.572;6.992;2023-08-31T05:11:23;12.50;99.90
3172;DHT22;1597;51.572;6.992;2023-08-31T05:13:49;12.50;99.90
3172;DHT22;1597;51.572;6.992;2023-08-31T05:16:15;12.50;99.90
3172;DHT22;1597;51.572;6.992;2023-08-31T05:18:41;12.50;99.90
3172;DHT22;1597;51.572;6.992;2023-08-31T05:21:07;12.50;99.90
3172;DHT22;1597;51.572;6.992;2023-08-31T05:23:33;12.50;99.90
3172;DHT22;1597;51.572;6.992;2023-08-31T05:25:59;12.60;99.90
3172;DHT22;1597;51.572;6.992;2023-08-31T05:28:27;12.50;99.90
3172;DHT22;1597;51.572;6.992;2023-08-31T05:30:54;12.50;99.90
3172;DHT22;1597;51.572;6.992;2023-08-31T05:33:21;12.50;99.90
3172;DHT22;1597;51.572;6.992;2023-08-31T05:35:52;12.40;99.90
3172;DHT22;1597;51.572;6.992;2023-08-31T05:38:18;12.40;99.90
3172;DHT22;1597;51.572;6.992;2023-08-31T05:40:44;12.40;99.90
3172;DHT22;1597;51.572;6.992;2023-08-31T05:43:15;12.40;99.90
3172;DHT22;1597;51.572;6.992;2023-08-31T05:45:42;12.40;99.90
3172;DHT22;1597;51.572;6.992;2023-08-31T05:48:08;12.50;99.90
3172;DHT22;1597;51.572;6.992;2023-08-31T05:50:34;12.50;99.90
3172;DHT22;1597;51.572;6.992;2023-08-31T05:53:00;12.50;99.90
3172;DHT22;1597;51.572;6.992;2023-08-31T05:55:26;12.60;99.90
3172;DHT22;1597;51.572;6.992;2023-08-31T05:57:52;12.70;99.90
3172;DHT22;1597;51.572;6.992;2023-08-31T06:00:18;12.70;99.90
3172;DHT22;1597;51.572;6.992;2023-08-31T06:02:44;12.80;99.90
3172;DHT22;1597;51.572;6.992;2023-08-31T06:05:10;12.80;99.90
3172;DHT22;1597;51.572;6.992;2023-08-31T06:07:42;12.90;99.90
3172;DHT22;1597;51.572;6.992;2023-08-31T06:10:09;13.00;99.90
3172;DHT22;1597;51.572;6.992;2023-08-31T06:12:35;13.00;99.90
3172;DHT22;1597;51.572;6.992;2023-08-31T06:15:02;12.90;99.90
3172;DHT22;1597;51.572;6.992;2023-08-31T06:17:28;12.90;99.90
3172;DHT22;1597;51.572;6.992;2023-08-31T06:19:54;12.90;99.90
3172;DHT22;1597;51.572;6.992;2023-08-31T06:22:20;13.00;99.90
3172;DHT22;1597;51.572;6.992;2023-08-31T06:24:48;13.00;99.90
3172;DHT22;1597;51.572;6.992;2023-08-31T06:27:14;13.10;99.90
3172;DHT22;1597;51.572;6.992;2023-08-31T06:29:41;13.10;99.90
3172;DHT22;1597;51.572;6.992;2023-08-31T06:32:07;13.10;99.90
3172;DHT22;1597;51.572;6.992;2023-08-31T06:34:32;13.10;99.90
3172;DHT22;1597;51.572;6.992;2023-08-31T06:36:58;13.10;99.90
3172;DHT22;1597;51.572;6.992;2023-08-31T06:39:24;13.10;99.90
3172;DHT22;1597;51.572;6.992;2023-08-31T06:41:50;13.20;99.90
3172;DHT22;1597;51.572;6.992;2023-08-31T06:44:16;13.20;99.90
3172;DHT22;1597;51.572;6.992;2023-08-31T06:46:42;13.30;99.90
3172;DHT22;1597;51.572;6.992;2023-08-31T06:49:08;13.30;99.90
3172;DHT22;1597;51.572;6.992;2023-08-31T06:51:35;13.40;99.90
3172;DHT22;1597;51.572;6.992;2023-08-31T06:54:01;13.50;99.90
3172;DHT22;1597;51.572;6.992;2023-08-31T06:56:32;13.50;99.90
3172;DHT22;1597;51.572;6.992;2023-08-31T06:58:59;13.70;99.90
3172;DHT22;1597;51.572;6.992;2023-08-31T07:01:24;13.60;99.90
3172;DHT22;1597;51.572;6.992;2023-08-31T07:03:52;13.60;99.90
3172;DHT22;1597;51.572;6.992;2023-08-31T07:06:18;13.60;99.90
3172;DHT22;1597;51.572;6.992;2023-08-31T07:08:43;13.60;99.90
3172;DHT22;1597;51.572;6.992;2023-08-31T07:11:11;13.70;99.90
3172;DHT22;1597;51.572;6.992;2023-08-31T07:13:37;13.80;99.90
3172;DHT22;1597;51.572;6.992;2023-08-31T07:16:03;13.90;99.90
3172;DHT22;1597;51.572;6.992;2023-08-31T07:18:29;14.10;99.90
3172;DHT22;1597;51.572;6.992;2023-08-31T07:20:58;14.10;99.90
3172;DHT22;1597;51.572;6.992;2023-08-31T07:23:24;14.20;99.90
3172;DHT22;1597;51.572;6.992;2023-08-31T07:25:50;14.20;99.90
3172;DHT22;1597;51.572;6.992;2023-08-31T07:28:16;14.20;99.90
3172;DHT22;1597;51.572;6.992;2023-08-31T07:30:42;14.20;99.90
3172;DHT22;1597;51.572;6.992;2023-08-31T07:33:07;14.20;99.90
3172;DHT22;1597;51.572;6.992;2023-08-31T07:35:33;14.20;99.90
3172;DHT22;1597;51.572;6.992;2023-08-31T07:37:59;14.20;99.90
3172;DHT22;1597;51.572;6.992;2023-08-31T07:40:25;14.20;99.90
3172;DHT22;1597;51.572;6.992;2023-08-31T07:42:51;14.30;99.90
3172;DHT22;1597;51.572;6.992;2023-08-31T07:45:17;14.30;99.90
3172;DHT22;1597;51.572;6.992;2023-08-31T07:47:43;14.30;99.90
3172;DHT22;1597;51.572;6.992;2023-08-31T07:50:09;14.40;99.90
3172;DHT22;1597;51.572;6.992;2023-08-31T07:52:35;14.50;99.90
3172;DHT22;1597;51.572;6.992;2023-08-31T07:55:03;14.60;99.90
3172;DHT22;1597;51.572;6.992;2023-08-31T07:57:29;14.70;99.90
3172;DHT22;1597;51.572;6.992;2023-08-31T07:59:55;14.80;99.90
3172;DHT22;1597;51.572;6.992;2023-08-31T08:02:21;14.90;99.90
3172;DHT22;1597;51.572;6.992;2023-08-31T08:04:47;15.00;99.90
3172;DHT22;1597;51.572;6.992;2023-08-31T08:07:12;15.00;99.90
3172;DHT22;1597;51.572;6.992;2023-08-31T08:09:38;15.10;99.90
3172;DHT22;1597;51.572;6.992;2023-08-31T08:12:04;15.20;99.90
3172;DHT22;1597;51.572;6.992;2023-08-31T08:14:30;15.30;99.90
3172;DHT22;1597;51.572;6.992;2023-08-31T08:16:58;15.40;99.90
3172;DHT22;1597;51.572;6.992;2023-08-31T08:19:24;15.40;99.90
3172;DHT22;1597;51.572;6.992;2023-08-31T08:21:50;15.40;99.90
3172;DHT22;1597;51.572;6.992;2023-08-31T08:24:17;15.50;99.90
3172;DHT22;1597;51.572;6.992;2023-08-31T08:26:43;15.50;99.90
3172;DHT22;1597;51.572;6.992;2023-08-31T08:29:08;15.50;99.90
3172;DHT22;1597;51.572;6.992;2023-08-31T08:31:34;15.50;99.90
3172;DHT22;1597;51.572;6.992;2023-08-31T08:34:01;15.50;99.90
3172;DHT22;1597;51.572;6.992;2023-08-31T08:36:26;15.50;99.90
3172;DHT22;1597;51.572;6.992;2023-08-31T08:38:52;15.50;99.90
3172;DHT22;1597;51.572;6.992;2023-08-31T08:41:23;15.50;99.90
3172;DHT22;1597;51.572;6.992;2023-08-31T08:43:51;15.70;99.90
3172;DHT22;1597;51.572;6.992;2023-08-31T08:46:17;15.90;99.90
3172;DHT22;1597;51.572;6.992;2023-08-31T08:48:44;16.00;99.90
3172;DHT22;1597;51.572;6.992;2023-08-31T08:51:13;16.20;99.90
3172;DHT22;1597;51.572;6.992;2023-08-31T08:53:43;16.30;99.90
3172;DHT22;1597;51.572;6.992;2023-08-31T08:56:09;16.50;99.90
3172;DHT22;1597;51.572;6.992;2023-08-31T08:58:35;16.70;99.90
3172;DHT22;1597;51.572;6.992;2023-08-31T09:01:02;16.80;99.90
3172;DHT22;1597;51.572;6.992;2023-08-31T09:03:28;16.90;92.90
3172;DHT22;1597;51.572;6.992;2023-08-31T09:05:54;16.90;94.90
3172;DHT22;1597;51.572;6.992;2023-08-31T09:08:27;16.90;94.50
3172;DHT22;1597;51.572;6.992;2023-08-31T09:10:56;16.90;91.20
3172;DHT22;1597;51.572;6.992;2023-08-31T09:13:26;17.00;90.30
3172;DHT22;1597;51.572;6.992;2023-08-31T09:15:54;16.90;90.50
3172;DHT22;1597;51.572;6.992;2023-08-31T09:18:29;17.00;91.70
3172;DHT22;1597;51.572;6.992;2023-08-31T09:20:59;16.90;85.10
3172;DHT22;1597;51.572;6.992;2023-08-31T09:23:26;16.90;86.60
3172;DHT22;1597;51.572;6.992;2023-08-31T09:25:54;17.00;87.30
3172;DHT22;1597;51.572;6.992;2023-08-31T09:28:25;17.10;81.80
3172;DHT22;1597;51.572;6.992;2023-08-31T09:30:53;17.10;82.00
3172;DHT22;1597;51.572;6.992;2023-08-31T09:33:29;17.20;83.00
3172;DHT22;1597;51.572;6.992;2023-08-31T09:35:59;17.30;61.70
3172;DHT22;1597;51.572;6.992;2023-08-31T09:38:27;17.20;68.60
3172;DHT22;1597;51.572;6.992;2023-08-31T09:41:06;17.20;72.20
3172;DHT22;1597;51.572;6.992;2023-08-31T09:43:32;17.30;64.90
3172;DHT22;1597;51.572;6.992;2023-08-31T09:45:59;17.20;76.20
3172;DHT22;1597;51.572;6.992;2023-08-31T09:48:26;17.30;79.60
3172;DHT22;1597;51.572;6.992;2023-08-31T09:50:52;17.50;63.30
3172;DHT22;1597;51.572;6.992;2023-08-31T09:53:20;17.60;59.60
3172;DHT22;1597;51.572;6.992;2023-08-31T09:55:47;17.80;46.30
3172;DHT22;1597;51.572;6.992;2023-08-31T09:58:18;17.90;41.60
3172;DHT22;1597;51.572;6.992;2023-08-31T10:00:52;18.00;49.80
3172;DHT22;1597;51.572;6.992;2023-08-31T10:03:18;18.20;29.60
3172;DHT22;1597;51.572;6.992;2023-08-31T10:05:48;18.30;21.80
3172;DHT22;1597;51.572;6.992;2023-08-31T10:08:16;18.40;22.10
3172;DHT22;1597;51.572;6.992;2023-08-31T10:10:43;18.40;15.90
3172;DHT22;1597;51.572;6.992;2023-08-31T10:13:09;18.40;1.00
3172;DHT22;1597;51.572;6.992;2023-08-31T10:15:36;18.30;9.90
3172;DHT22;1597;51.572;6.992;2023-08-31T10:18:06;18.40;4.30
3172;DHT22;1597;51.572;6.992;2023-08-31T10:20:33;18.50;7.30
3172;DHT22;1597;51.572;6.992;2023-08-31T10:23:03;18.60;11.20
3172;DHT22;1597;51.572;6.992;2023-08-31T10:28:23;18.90;4.70
3172;DHT22;1597;51.572;6.992;2023-08-31T10:36:45;19.00;1.00
3172;DHT22;1597;51.572;6.992;2023-08-31T10:39:16;19.20;1.00
3172;DHT22;1597;51.572;6.992;2023-08-31T10:41:55;19.20;1.00
3172;DHT22;1597;51.572;6.992;2023-08-31T10:44:26;19.30;1.00
3172;DHT22;1597;51.572;6.992;2023-08-31T10:46:53;19.20;1.00
3172;DHT22;1597;51.572;6.992;2023-08-31T10:49:21;19.20;1.00
3172;DHT22;1597;51.572;6.992;2023-08-31T10:52:19;19.20;1.00
3172;DHT22;1597;51.572;6.992;2023-08-31T10:54:46;19.10;1.00
3172;DHT22;1597;51.572;6.992;2023-08-31T10:57:12;19.00;1.00
3172;DHT22;1597;51.572;6.992;2023-08-31T10:59:48;18.90;1.00
3172;DHT22;1597;51.572;6.992;2023-08-31T11:02:43;18.90;1.00
3172;DHT22;1597;51.572;6.992;2023-08-31T11:05:16;18.70;1.00
3172;DHT22;1597;51.572;6.992;2023-08-31T11:07:49;18.70;1.00
3172;DHT22;1597;51.572;6.992;2023-08-31T11:10:23;18.70;1.00
3172;DHT22;1597;51.572;6.992;2023-08-31T11:12:53;18.70;1.00
3172;DHT22;1597;51.572;6.992;2023-08-31T11:15:22;18.70;1.00
3172;DHT22;1597;51.572;6.992;2023-08-31T11:17:54;18.80;1.00
3172;DHT22;1597;51.572;6.992;2023-08-31T11:20:23;18.90;1.00
3172;DHT22;1597;51.572;6.992;2023-08-31T11:22:53;19.10;1.00
3172;DHT22;1597;51.572;6.992;2023-08-31T11:25:20;19.10;1.00
3172;DHT22;1597;51.572;6.992;2023-08-31T11:28:01;19.20;1.00
3172;DHT22;1597;51.572;6.992;2023-08-31T11:30:32;19.10;1.00
3172;DHT22;1597;51.572;6.992;2023-08-31T11:33:08;19.10;1.00
3172;DHT22;1597;51.572;6.992;2023-08-31T11:35:39;19.10;1.00
3172;DHT22;1597;51.572;6.992;2023-08-31T11:38:12;19.20;1.00
3172;DHT22;1597;51.572;6.992;2023-08-31T11:40:38;19.10;1.00
3172;DHT22;1597;51.572;6.992;2023-08-31T11:43:07;19.10;1.00
3172;DHT22;1597;51.572;6.992;2023-08-31T11:45:34;19.10;1.00
3172;DHT22;1597;51.572;6.992;2023-08-31T11:48:01;19.10;1.00
3172;DHT22;1597;51.572;6.992;2023-08-31T11:50:28;19.10;1.00
3172;DHT22;1597;51.572;6.992;2023-08-31T11:52:54;19.20;1.00
3172;DHT22;1597;51.572;6.992;2023-08-31T11:55:21;19.30;1.00
3172;DHT22;1597;51.572;6.992;2023-08-31T11:57:50;19.40;1.00
3172;DHT22;1597;51.572;6.992;2023-08-31T12:00:21;19.40;1.00
3172;DHT22;1597;51.572;6.992;2023-08-31T12:02:57;19.50;1.00
3172;DHT22;1597;51.572;6.992;2023-08-31T12:05:27;19.50;1.00
3172;DHT22;1597;51.572;6.992;2023-08-31T12:07:54;19.60;1.00
3172;DHT22;1597;51.572;6.992;2023-08-31T12:10:20;19.60;1.00
3172;DHT22;1597;51.572;6.992;2023-08-31T12:12:46;19.60;1.00
3172;DHT22;1597;51.572;6.992;2023-08-31T12:15:13;19.70;1.00
3172;DHT22;1597;51.572;6.992;2023-08-31T12:17:39;19.80;1.00
3172;DHT22;1597;51.572;6.992;2023-08-31T12:20:06;19.90;1.00
3172;DHT22;1597;51.572;6.992;2023-08-31T12:22:32;20.00;1.00
3172;DHT22;1597;51.572;6.992;2023-08-31T12:24:58;19.80;1.00
3172;DHT22;1597;51.572;6.992;2023-08-31T12:27:24;19.90;1.00
3172;DHT22;1597;51.572;6.992;2023-08-31T12:29:50;19.90;1.00
3172;DHT22;1597;51.572;6.992;2023-08-31T12:32:16;20.00;1.00
3172;DHT22;1597;51.572;6.992;2023-08-31T12:34:44;20.10;1.00
3172;DHT22;1597;51.572;6.992;2023-08-31T12:37:10;20.20;1.00
3172;DHT22;1597;51.572;6.992;2023-08-31T12:39:36;20.00;1.00
3172;DHT22;1597;51.572;6.992;2023-08-31T12:42:03;19.90;1.00
3172;DHT22;1597;51.572;6.992;2023-08-31T12:44:29;19.90;1.00
3172;DHT22;1597;51.572;6.992;2023-08-31T12:46:56;20.00;1.00
3172;DHT22;1597;51.572;6.992;2023-08-31T12:49:22;20.10;1.00
3172;DHT22;1597;51.572;6.992;2023-08-31T12:51:48;20.10;1.00
3172;DHT22;1597;51.572;6.992;2023-08-31T12:54:17;20.00;1.00
3172;DHT22;1597;51.572;6.992;2023-08-31T12:56:43;19.90;1.00
3172;DHT22;1597;51.572;6.992;2023-08-31T12:59:09;19.90;1.00
3172;DHT22;1597;51.572;6.992;2023-08-31T13:01:34;19.90;1.00
3172;DHT22;1597;51.572;6.992;2023-08-31T13:04:01;20.00;1.00
3172;DHT22;1597;51.572;6.992;2023-08-31T13:06:27;20.10;1.00
3172;DHT22;1597;51.572;6.992;2023-08-31T13:08:54;20.10;1.00
3172;DHT22;1597;51.572;6.992;2023-08-31T13:11:19;20.20;1.00
3172;DHT22;1597;51.572;6.992;2023-08-31T13:13:49;20.30;1.00
3172;DHT22;1597;51.572;6.992;2023-08-31T13:16:19;20.30;1.00
3172;DHT22;1597;51.572;6.992;2023-08-31T13:18:45;20.30;1.00
3172;DHT22;1597;51.572;6.992;2023-08-31T13:21:10;20.20;1.00
3172;DHT22;1597;51.572;6.992;2023-08-31T13:23:36;20.20;1.00
3172;DHT22;1597;51.572;6.992;2023-08-31T13:26:02;20.10;1.00
3172;DHT22;1597;51.572;6.992;2023-08-31T13:28:28;20.00;1.00
3172;DHT22;1597;51.572;6.992;2023-08-31T13:30:57;19.80;1.00
3172;DHT22;1597;51.572;6.992;2023-08-31T13:33:23;19.70;1.00
3172;DHT22;1597;51.572;6.992;2023-08-31T13:35:49;19.50;1.00
3172;DHT22;1597;51.572;6.992;2023-08-31T13:38:15;19.40;1.00
3172;DHT22;1597;51.572;6.992;2023-08-31T13:40:41;19.30;1.00
3172;DHT22;1597;51.572;6.992;2023-08-31T13:43:07;19.20;1.00
3172;DHT22;1597;51.572;6.992;2023-08-31T13:45:33;19.20;1.00
3172;DHT22;1597;51.572;6.992;2023-08-31T13:47:58;19.20;1.00
3172;DHT22;1597;51.572;6.992;2023-08-31T13:50:26;19.20;1.00
3172;DHT22;1597;51.572;6.992;2023-08-31T13:52:52;19.10;1.00
3172;DHT22;1597;51.572;6.992;2023-08-31T13:55:18;19.10;1.00
3172;DHT22;1597;51.572;6.992;2023-08-31T13:57:44;19.10;1.00
3172;DHT22;1597;51.572;6.992;2023-08-31T14:00:11;19.00;1.00
3172;DHT22;1597;51.572;6.992;2023-08-31T14:02:37;19.00;1.00
3172;DHT22;1597;51.572;6.992;2023-08-31T14:05:04;18.90;1.00
3172;DHT22;1597;51.572;6.992;2023-08-31T14:07:35;18.80;1.00
3172;DHT22;1597;51.572;6.992;2023-08-31T14:10:01;18.70;1.00
3172;DHT22;1597;51.572;6.992;2023-08-31T14:12:31;18.50;3.50
3172;DHT22;1597;51.572;6.992;2023-08-31T14:14:57;18.30;36.60
3172;DHT22;1597;51.572;6.992;2023-08-31T14:17:23;18.00;62.50
3172;DHT22;1597;51.572;6.992;2023-08-31T14:19:49;17.80;74.30
3172;DHT22;1597;51.572;6.992;2023-08-31T14:22:15;17.60;87.10
3172;DHT22;1597;51.572;6.992;2023-08-31T14:24:42;17.20;95.80
3172;DHT22;1597;51.572;6.992;2023-08-31T14:27:07;17.10;99.90
3172;DHT22;1597;51.572;6.992;2023-08-31T14:29:33;16.90;99.90
3172;DHT22;1597;51.572;6.992;2023-08-31T14:32:00;16.80;99.90
3172;DHT22;1597;51.572;6.992;2023-08-31T14:34:26;16.70;99.90
3172;DHT22;1597;51.572;6.992;2023-08-31T14:36:52;16.60;99.90
3172;DHT22;1597;51.572;6.992;2023-08-31T14:39:22;16.60;99.90
3172;DHT22;1597;51.572;6.992;2023-08-31T14:41:55;16.40;99.90
3172;DHT22;1597;51.572;6.992;2023-08-31T14:44:22;16.40;99.90
3172;DHT22;1597;51.572;6.992;2023-08-31T14:46:47;16.40;99.90
3172;DHT22;1597;51.572;6.992;2023-08-31T14:49:13;16.40;99.90
3172;DHT22;1597;51.572;6.992;2023-08-31T14:51:39;16.40;99.90
3172;DHT22;1597;51.572;6.992;2023-08-31T14:54:05;16.30;99.90
3172;DHT22;1597;51.572;6.992;2023-08-31T14:56:31;16.20;99.90
3172;DHT22;1597;51.572;6.992;2023-08-31T14:58:57;16.20;99.90
3172;DHT22;1597;51.572;6.992;2023-08-31T15:01:23;16.20;99.90
3172;DHT22;1597;51.572;6.992;2023-08-31T15:03:50;16.30;99.90
3172;DHT22;1597;51.572;6.992;2023-08-31T15:06:16;16.30;99.90
3172;DHT22;1597;51.572;6.992;2023-08-31T15:08:42;16.30;99.90
3172;DHT22;1597;51.572;6.992;2023-08-31T15:11:09;16.40;99.90
3172;DHT22;1597;51.572;6.992;2023-08-31T15:13:35;16.40;99.90
3172;DHT22;1597;51.572;6.992;2023-08-31T15:16:01;16.30;99.90
3172;DHT22;1597;51.572;6.992;2023-08-31T15:18:27;16.30;99.90
3172;DHT22;1597;51.572;6.992;2023-08-31T15:20:53;16.40;99.90
3172;DHT22;1597;51.572;6.992;2023-08-31T15:23:20;16.40;99.90
3172;DHT22;1597;51.572;6.992;2023-08-31T15:25:46;16.40;99.90
3172;DHT22;1597;51.572;6.992;2023-08-31T15:28:12;16.30;99.90
3172;DHT22;1597;51.572;6.992;2023-08-31T15:30:38;16.30;99.90
3172;DHT22;1597;51.572;6.992;2023-08-31T15:33:04;16.20;99.90
3172;DHT22;1597;51.572;6.992;2023-08-31T15:35:31;16.30;99.90
3172;DHT22;1597;51.572;6.992;2023-08-31T15:37:58;16.30;99.90
3172;DHT22;1597;51.572;6.992;2023-08-31T15:40:25;16.30;99.90
3172;DHT22;1597;51.572;6.992;2023-08-31T15:42:51;16.20;99.90
3172;DHT22;1597;51.572;6.992;2023-08-31T15:45:17;16.20;99.90
3172;DHT22;1597;51.572;6.992;2023-08-31T15:47:43;16.20;99.90
3172;DHT22;1597;51.572;6.992;2023-08-31T15:50:09;16.20;99.90
3172;DHT22;1597;51.572;6.992;2023-08-31T15:52:35;16.10;99.90
3172;DHT22;1597;51.572;6.992;2023-08-31T15:55:02;16.20;99.90
3172;DHT22;1597;51.572;6.992;2023-08-31T15:57:29;16.20;99.90
3172;DHT22;1597;51.572;6.992;2023-08-31T15:59:58;16.20;99.90
3172;DHT22;1597;51.572;6.992;2023-08-31T16:02:31;16.20;99.90
3172;DHT22;1597;51.572;6.992;2023-08-31T16:04:58;16.20;99.90
3172;DHT22;1597;51.572;6.992;2023-08-31T16:07:24;16.10;99.90
3172;DHT22;1597;51.572;6.992;2023-08-31T16:09:50;16.20;99.90
3172;DHT22;1597;51.572;6.992;2023-08-31T16:12:18;16.20;99.90
3172;DHT22;1597;51.572;6.992;2023-08-31T16:14:50;16.30;99.90
3172;DHT22;1597;51.572;6.992;2023-08-31T16:17:17;16.30;99.90